sensor_id;sensor_type;location;lat;lon;timestamp;temperature;humidity
28530;DHT22;15737;49.760;6.632;2023-02-03T00:02:17;6.90;99.90
28530;DHT22;15737;49.760;6.632;2023-02-03T00:04:43;6.90;99.90
28530;DHT22;15737;49.760;6.632;2023-02-03T00:07:11;6.90;99.90
28530;DHT22;15737;49.760;6.632;2023-02-03T00:09:38;6.90;99.90
28530;DHT22;15737;49.760;6.632;2023-02-03T00:12:03;7.00;99.90
28530;DHT22;15737;49.760;6.632;2023-02-03T00:14:29;7.00;99.90
28530;DHT22;15737;49.760;6.632;2023-02-03T00:16:55;6.90;99.90
28530;DHT22;15737;49.760;6.632;2023-02-03T00:19:20;6.90;99.90
28530;DHT22;15737;49.760;6.632;2023-02-03T00:21:46;6.90;99.90
28530;DHT22;15737;49.760;6.632;2023-02-03T00:24:11;6.90;99.90
28530;DHT22;15737;49.760;6.632;2023-02-03T00:26:41;6.90;99.90
28530;DHT22;15737;49.760;6.632;2023-02-03T00:29:07;6.90;99.90
28530;DHT22;15737;49.760;6.632;2023-02-03T00:31:34;6.90;99.90
28530;DHT22;15737;49.760;6.632;2023-02-03T00:33:59;6.90;99.90
28530;DHT22;15737;49.760;6.632;2023-02-03T00:36:25;6.90;99.90
28530;DHT22;15737;49.760;6.632;2023-02-03T00:38:52;6.90;99.90
28530;DHT22;15737;49.760;6.632;2023-02-03T00:41:18;6.90;99.90
28530;DHT22;15737;49.760;6.632;2023-02-03T00:43:44;6.90;99.90
28530;DHT22;15737;49.760;6.632;2023-02-03T00:46:09;6.90;99.90
28530;DHT22;15737;49.760;6.632;2023-02-03T00:48:35;6.90;99.90
28530;DHT22;15737;49.760;6.632;2023-02-03T00:51:00;6.90;99.90
28530;DHT22;15737;49.760;6.632;2023-02-03T00:53:26;6.80;99.90
28530;DHT22;15737;49.760;6.632;2023-02-03T00:55:51;6.80;99.90
28530;DHT22;15737;49.760;6.632;2023-02-03T00:58:17;6.80;99.90
28530;DHT22;15737;49.760;6.632;2023-02-03T01:00:43;6.80;99.90
28530;DHT22;15737;49.760;6.632;2023-02-03T01:03:08;6.80;99.90
28530;DHT22;15737;49.760;6.632;2023-02-03T01:05:34;6.80;99.90
28530;DHT22;15737;49.760;6.632;2023-02-03T01:08:01;6.80;99.90
28530;DHT22;15737;49.760;6.632;2023-02-03T01:10:29;6.70;99.90
28530;DHT22;15737;49.760;6.632;2023-02-03T01:12:54;6.70;99.90
28530;DHT22;15737;49.760;6.632;2023-02-03T01:15:20;6.70;99.90
28530;DHT22;15737;49.760;6.632;2023-02-03T01:17:45;6.70;99.90
28530;DHT22;15737;49.760;6.632;2023-02-03T01:20:11;6.70;99.90
28530;DHT22;15737;49.760;6.632;2023-02-03T01:25:08;6.60;99.90
28530;DHT22;15737;49.760;6.632;2023-02-03T01:27:34;6.60;99.90
28530;DHT22;15737;49.760;6.632;2023-02-03T01:29:59;6.60;99.90
28530;DHT22;15737;49.760;6.632;2023-02-03T01:32:25;6.60;99.90
28530;DHT22;15737;49.760;6.632;2023-02-03T01:34:51;6.60;99.90
28530;DHT22;15737;49.760;6.632;2023-02-03T01:37:16;6.60;99.90
28530;DHT22;15737;49.760;6.632;2023-02-03T01:39:43;6.60;99.90
28530;DHT22;15737;49.760;6.632;2023-02-03T01:42:12;6.60;99.90
28530;DHT22;15737;49.760;6.632;2023-02-03T01:47:32;6.70;99.90
28530;DHT22;15737;49.760;6.632;2023-02-03T01:50:05;6.70;99.90
28530;DHT22;15737;49.760;6.632;2023-02-03T01:52:35;6.60;99.90
28530;DHT22;15737;49.760;6.632;2023-02-03T01:55:03;6.60;99.90
28530;DHT22;15737;49.760;6.632;2023-02-03T01:57:40;6.60;99.90
28530;DHT22;15737;49.760;6.632;2023-02-03T02:00:08;6.70;99.90
28530;DHT22;15737;49.760;6.632;2023-02-03T02:02:34;6.70;99.90
28530;DHT22;15737;49.760;6.632;2023-02-03T02:05:05;6.70;99.90
28530;DHT22;15737;49.760;6.632;2023-02-03T02:07:33;6.70;99.90
28530;DHT22;15737;49.760;6.632;2023-02-03T02:10:01;6.80;99.90
28530;DHT22;15737;49.760;6.632;2023-02-03T02:12:27;6.80;99.90
28530;DHT22;15737;49.760;6.632;2023-02-03T02:14:53;6.80;99.90
28530;DHT22;15737;49.760;6.632;2023-02-03T02:17:35;6.90;99.90
28530;DHT22;15737;49.760;6.632;2023-02-03T02:20:32;6.90;99.90
28530;DHT22;15737;49.760;6.632;2023-02-03T02:26:23;6.90;99.90
28530;DHT22;15737;49.760;6.632;2023-02-03T02:32:01;6.90;99.90
28530;DHT22;15737;49.760;6.632;2023-02-03T02:34:49;7.00;99.90
28530;DHT22;15737;49.760;6.632;2023-02-03T02:37:34;7.00;99.90
28530;DHT22;15737;49.760;6.632;2023-02-03T02:43:07;7.00;99.90
28530;DHT22;15737;49.760;6.632;2023-02-03T02:46:07;7.10;99.90
28530;DHT22;15737;49.760;6.632;2023-02-03T02:48:39;7.10;99.90
28530;DHT22;15737;49.760;6.632;2023-02-03T02:51:08;7.10;99.90
28530;DHT22;15737;49.760;6.632;2023-02-03T02:53:39;7.10;99.90
28530;DHT22;15737;49.760;6.632;2023-02-03T02:58:37;7.10;99.90
28530;DHT22;15737;49.760;6.632;2023-02-03T03:01:06;7.10;99.90
28530;DHT22;15737;49.760;6.632;2023-02-03T03:03:32;7.20;99.90
28530;DHT22;15737;49.760;6.632;2023-02-03T03:06:02;7.20;99.90
28530;DHT22;15737;49.760;6.632;2023-02-03T03:09:32;7.10;99.90
28530;DHT22;15737;49.760;6.632;2023-02-03T03:11:46;7.10;99.90
28530;DHT22;15737;49.760;6.632;2023-02-03T03:14:15;7.10;99.90
28530;DHT22;15737;49.760;6.632;2023-02-03T03:16:51;7.10;99.90
28530;DHT22;15737;49.760;6.632;2023-02-03T03:19:22;7.10;99.90
28530;DHT22;15737;49.760;6.632;2023-02-03T03:21:55;7.10;99.90
28530;DHT22;15737;49.760;6.632;2023-02-03T03:24:27;7.10;99.90
28530;DHT22;15737;49.760;6.632;2023-02-03T03:30:24;7.10;99.90
28530;DHT22;15737;49.760;6.632;2023-02-03T03:32:31;7.10;99.90
28530;DHT22;15737;49.760;6.632;2023-02-03T03:34:58;7.10;99.90
28530;DHT22;15737;49.760;6.632;2023-02-03T03:37:43;7.00;99.90
28530;DHT22;15737;49.760;6.632;2023-02-03T03:40:25;7.00;99.90
28530;DHT22;15737;49.760;6.632;2023-02-03T03:43:06;6.90;99.90
28530;DHT22;15737;49.760;6.632;2023-02-03T03:45:50;6.90;99.90
28530;DHT22;15737;49.760;6.632;2023-02-03T03:48:27;7.00;99.90
28530;DHT22;15737;49.760;6.632;2023-02-03T03:51:18;7.00;99.90
28530;DHT22;15737;49.760;6.632;2023-02-03T03:53:45;6.90;99.90
28530;DHT22;15737;49.760;6.632;2023-02-03T03:56:15;7.00;99.90
28530;DHT22;15737;49.760;6.632;2023-02-03T04:01:11;7.00;99.90
28530;DHT22;15737;49.760;6.632;2023-02-03T04:03:45;7.00;99.90
28530;DHT22;15737;49.760;6.632;2023-02-03T04:06:12;7.00;99.90
28530;DHT22;15737;49.760;6.632;2023-02-03T04:08:37;7.00;99.90
28530;DHT22;15737;49.760;6.632;2023-02-03T04:11:04;7.00;99.90
28530;DHT22;15737;49.760;6.632;2023-02-03T04:13:30;7.10;99.90
28530;DHT22;15737;49.760;6.632;2023-02-03T04:15:56;7.10;99.90
28530;DHT22;15737;49.760;6.632;2023-02-03T04:18:21;7.10;99.90
28530;DHT22;15737;49.760;6.632;2023-02-03T04:20:47;7.10;99.90
28530;DHT22;15737;49.760;6.632;2023-02-03T04:23:12;7.20;99.90
28530;DHT22;15737;49.760;6.632;2023-02-03T04:25:38;7.10;99.90
28530;DHT22;15737;49.760;6.632;2023-02-03T04:28:03;7.10;99.90
28530;DHT22;15737;49.760;6.632;2023-02-03T04:30:30;7.10;99.90
28530;DHT22;15737;49.760;6.632;2023-02-03T04:32:56;7.10;99.90
28530;DHT22;15737;49.760;6.632;2023-02-03T04:35:21;7.10;99.90
28530;DHT22;15737;49.760;6.632;2023-02-03T04:37:47;7.10;99.90
28530;DHT22;15737;49.760;6.632;2023-02-03T04:40:12;7.10;99.90
28530;DHT22;15737;49.760;6.632;2023-02-03T04:42:39;7.10;99.90
28530;DHT22;15737;49.760;6.632;2023-02-03T04:45:06;7.10;99.90
28530;DHT22;15737;49.760;6.632;2023-02-03T04:47:32;7.00;99.90
28530;DHT22;15737;49.760;6.632;2023-02-03T04:49:58;6.90;99.90
28530;DHT22;15737;49.760;6.632;2023-02-03T04:52:24;6.90;99.90
28530;DHT22;15737;49.760;6.632;2023-02-03T04:54:49;6.80;99.90
28530;DHT22;15737;49.760;6.632;2023-02-03T04:57:15;6.70;99.90
28530;DHT22;15737;49.760;6.632;2023-02-03T04:59:40;6.60;99.90
28530;DHT22;15737;49.760;6.632;2023-02-03T05:02:06;6.60;99.90
28530;DHT22;15737;49.760;6.632;2023-02-03T05:04:32;6.60;99.90
28530;DHT22;15737;49.760;6.632;2023-02-03T05:06:58;6.50;99.90
28530;DHT22;15737;49.760;6.632;2023-02-03T05:09:24;6.60;99.90
28530;DHT22;15737;49.760;6.632;2023-02-03T05:11:50;6.50;99.90
28530;DHT22;15737;49.760;6.632;2023-02-03T05:14:15;6.60;99.90
28530;DHT22;15737;49.760;6.632;2023-02-03T05:16:41;6.60;99.90
28530;DHT22;15737;49.760;6.632;2023-02-03T05:19:06;6.60;99.90
28530;DHT22;15737;49.760;6.632;2023-02-03T05:21:33;6.60;99.90
28530;DHT22;15737;49.760;6.632;2023-02-03T05:23:58;6.60;99.90
28530;DHT22;15737;49.760;6.632;2023-02-03T05:26:24;6.60;99.90
28530;DHT22;15737;49.760;6.632;2023-02-03T05:28:50;6.60;99.90
28530;DHT22;15737;49.760;6.632;2023-02-03T05:31:15;6.70;99.90
28530;DHT22;15737;49.760;6.632;2023-02-03T05:33:41;6.70;99.90
28530;DHT22;15737;49.760;6.632;2023-02-03T05:36:07;6.70;99.90
28530;DHT22;15737;49.760;6.632;2023-02-03T05:38:33;6.70;99.90
28530;DHT22;15737;49.760;6.632;2023-02-03T05:40:58;6.80;99.90
28530;DHT22;15737;49.760;6.632;2023-02-03T05:43:42;6.80;99.90
28530;DHT22;15737;49.760;6.632;2023-02-03T05:46:07;6.80;99.90
28530;DHT22;15737;49.760;6.632;2023-02-03T05:48:33;6.80;99.90
28530;DHT22;15737;49.760;6.632;2023-02-03T05:50:59;6.90;99.90
28530;DHT22;15737;49.760;6.632;2023-02-03T05:53:25;6.90;99.90
28530;DHT22;15737;49.760;6.632;2023-02-03T05:55:51;6.90;99.90
28530;DHT22;15737;49.760;6.632;2023-02-03T05:58:17;6.90;99.90
28530;DHT22;15737;49.760;6.632;2023-02-03T06:00:42;7.00;99.90
28530;DHT22;15737;49.760;6.632;2023-02-03T06:03:08;7.00;99.90
28530;DHT22;15737;49.760;6.632;2023-02-03T06:05:34;7.00;99.90
28530;DHT22;15737;49.760;6.632;2023-02-03T06:08:00;7.00;99.90
28530;DHT22;15737;49.760;6.632;2023-02-03T06:10:26;7.00;99.90
28530;DHT22;15737;49.760;6.632;2023-02-03T06:12:51;7.10;99.90
28530;DHT22;15737;49.760;6.632;2023-02-03T06:15:17;7.10;99.90
28530;DHT22;15737;49.760;6.632;2023-02-03T06:17:47;7.10;99.90
28530;DHT22;15737;49.760;6.632;2023-02-03T06:20:15;7.10;99.90
28530;DHT22;15737;49.760;6.632;2023-02-03T06:22:41;7.10;99.90
28530;DHT22;15737;49.760;6.632;2023-02-03T06:25:07;7.10;99.90
28530;DHT22;15737;49.760;6.632;2023-02-03T06:27:33;7.10;99.90
28530;DHT22;15737;49.760;6.632;2023-02-03T06:29:58;7.10;99.90
28530;DHT22;15737;49.760;6.632;2023-02-03T06:32:24;7.10;99.90
28530;DHT22;15737;49.760;6.632;2023-02-03T06:34:49;7.10;99.90
28530;DHT22;15737;49.760;6.632;2023-02-03T06:37:15;7.10;99.90
28530;DHT22;15737;49.760;6.632;2023-02-03T06:39:41;7.10;99.90
28530;DHT22;15737;49.760;6.632;2023-02-03T06:42:07;7.20;99.90
28530;DHT22;15737;49.760;6.632;2023-02-03T06:44:32;7.10;99.90
28530;DHT22;15737;49.760;6.632;2023-02-03T06:46:58;7.10;99.90
28530;DHT22;15737;49.760;6.632;2023-02-03T06:49:24;7.10;99.90
28530;DHT22;15737;49.760;6.632;2023-02-03T06:51:49;7.10;99.90
28530;DHT22;15737;49.760;6.632;2023-02-03T06:54:16;7.10;99.90
28530;DHT22;15737;49.760;6.632;2023-02-03T06:56:42;7.10;99.90
28530;DHT22;15737;49.760;6.632;2023-02-03T06:59:07;7.10;99.90
28530;DHT22;15737;49.760;6.632;2023-02-03T07:01:35;7.10;99.90
28530;DHT22;15737;49.760;6.632;2023-02-03T07:04:00;7.10;99.90
28530;DHT22;15737;49.760;6.632;2023-02-03T07:06:26;7.10;99.90
28530;DHT22;15737;49.760;6.632;2023-02-03T07:08:54;7.20;99.90
28530;DHT22;15737;49.760;6.632;2023-02-03T07:11:20;7.10;99.90
28530;DHT22;15737;49.760;6.632;2023-02-03T07:13:46;7.10;99.90
28530;DHT22;15737;49.760;6.632;2023-02-03T07:16:12;7.20;99.90
28530;DHT22;15737;49.760;6.632;2023-02-03T07:18:37;7.20;99.90
28530;DHT22;15737;49.760;6.632;2023-02-03T07:21:04;7.10;99.90
28530;DHT22;15737;49.760;6.632;2023-02-03T07:23:30;7.10;99.90
28530;DHT22;15737;49.760;6.632;2023-02-03T07:25:59;7.20;99.90
28530;DHT22;15737;49.760;6.632;2023-02-03T07:28:25;7.20;99.90
28530;DHT22;15737;49.760;6.632;2023-02-03T07:30:51;7.20;99.90
28530;DHT22;15737;49.760;6.632;2023-02-03T07:33:16;7.20;99.90
28530;DHT22;15737;49.760;6.632;2023-02-03T07:35:42;7.20;99.90
28530;DHT22;15737;49.760;6.632;2023-02-03T07:38:07;7.30;99.90
28530;DHT22;15737;49.760;6.632;2023-02-03T07:40:33;7.30;99.90
28530;DHT22;15737;49.760;6.632;2023-02-03T07:42:58;7.30;99.90
28530;DHT22;15737;49.760;6.632;2023-02-03T07:45:24;7.30;99.90
28530;DHT22;15737;49.760;6.632;2023-02-03T07:47:50;7.30;99.90
28530;DHT22;15737;49.760;6.632;2023-02-03T07:50:15;7.30;99.90
28530;DHT22;15737;49.760;6.632;2023-02-03T07:52:41;7.30;99.90
28530;DHT22;15737;49.760;6.632;2023-02-03T07:55:07;7.30;99.90
28530;DHT22;15737;49.760;6.632;2023-02-03T07:57:34;7.30;99.90
28530;DHT22;15737;49.760;6.632;2023-02-03T08:00:02;7.30;99.90
28530;DHT22;15737;49.760;6.632;2023-02-03T08:02:27;7.30;99.90
28530;DHT22;15737;49.760;6.632;2023-02-03T08:05:02;7.20;99.90
28530;DHT22;15737;49.760;6.632;2023-02-03T08:07:42;7.20;99.90
28530;DHT22;15737;49.760;6.632;2023-02-03T08:15:40;7.10;99.90
28530;DHT22;15737;49.760;6.632;2023-02-03T08:18:25;7.10;99.90
28530;DHT22;15737;49.760;6.632;2023-02-03T08:21:06;7.10;99.90
28530;DHT22;15737;49.760;6.632;2023-02-03T08:23:47;7.10;99.90
28530;DHT22;15737;49.760;6.632;2023-02-03T08:26:30;7.10;99.90
28530;DHT22;15737;49.760;6.632;2023-02-03T08:29:14;7.10;99.90
28530;DHT22;15737;49.760;6.632;2023-02-03T08:31:54;7.10;99.90
28530;DHT22;15737;49.760;6.632;2023-02-03T08:34:31;7.20;99.90
28530;DHT22;15737;49.760;6.632;2023-02-03T08:37:06;7.20;99.90
28530;DHT22;15737;49.760;6.632;2023-02-03T08:39:32;7.20;99.90
28530;DHT22;15737;49.760;6.632;2023-02-03T08:41:58;7.30;99.90
28530;DHT22;15737;49.760;6.632;2023-02-03T08:44:24;7.30;99.90
28530;DHT22;15737;49.760;6.632;2023-02-03T08:46:50;7.40;99.90
28530;DHT22;15737;49.760;6.632;2023-02-03T08:49:24;7.50;99.90
28530;DHT22;15737;49.760;6.632;2023-02-03T08:52:06;7.60;99.90
28530;DHT22;15737;49.760;6.632;2023-02-03T08:54:45;7.70;99.90
28530;DHT22;15737;49.760;6.632;2023-02-03T08:57:24;7.80;99.90
28530;DHT22;15737;49.760;6.632;2023-02-03T09:00:01;7.80;99.90
28530;DHT22;15737;49.760;6.632;2023-02-03T09:02:41;7.80;99.90
28530;DHT22;15737;49.760;6.632;2023-02-03T09:05:19;7.90;99.90
28530;DHT22;15737;49.760;6.632;2023-02-03T09:08:05;7.90;99.90
28530;DHT22;15737;49.760;6.632;2023-02-03T09:10:49;7.90;99.90
28530;DHT22;15737;49.760;6.632;2023-02-03T09:13:32;7.90;99.90
28530;DHT22;15737;49.760;6.632;2023-02-03T09:16:15;7.90;99.90
28530;DHT22;15737;49.760;6.632;2023-02-03T09:24:29;7.90;99.90
28530;DHT22;15737;49.760;6.632;2023-02-03T09:27:38;7.90;99.90
28530;DHT22;15737;49.760;6.632;2023-02-03T09:30:50;7.80;99.90
28530;DHT22;15737;49.760;6.632;2023-02-03T09:33:37;7.80;99.90
28530;DHT22;15737;49.760;6.632;2023-02-03T09:36:22;7.70;99.90
28530;DHT22;15737;49.760;6.632;2023-02-03T09:39:07;7.80;99.90
28530;DHT22;15737;49.760;6.632;2023-02-03T09:47:48;8.00;99.90
28530;DHT22;15737;49.760;6.632;2023-02-03T09:50:32;7.90;99.90
28530;DHT22;15737;49.760;6.632;2023-02-03T09:56:08;8.10;99.90
28530;DHT22;15737;49.760;6.632;2023-02-03T09:58:49;8.20;99.90
28530;DHT22;15737;49.760;6.632;2023-02-03T10:05:32;8.20;99.90
28530;DHT22;15737;49.760;6.632;2023-02-03T10:08:11;8.30;99.90
28530;DHT22;15737;49.760;6.632;2023-02-03T10:10:40;8.50;99.90
28530;DHT22;15737;49.760;6.632;2023-02-03T10:18:44;9.50;99.90
28530;DHT22;15737;49.760;6.632;2023-02-03T10:21:34;9.70;99.90
28530;DHT22;15737;49.760;6.632;2023-02-03T10:24:01;9.70;99.90
28530;DHT22;15737;49.760;6.632;2023-02-03T10:26:28;9.70;99.90
28530;DHT22;15737;49.760;6.632;2023-02-03T10:28:56;9.70;99.90
28530;DHT22;15737;49.760;6.632;2023-02-03T10:31:24;9.70;99.90
28530;DHT22;15737;49.760;6.632;2023-02-03T10:34:11;9.60;99.90
28530;DHT22;15737;49.760;6.632;2023-02-03T10:39:30;9.60;99.90
28530;DHT22;15737;49.760;6.632;2023-02-03T10:41:57;9.50;99.90
28530;DHT22;15737;49.760;6.632;2023-02-03T10:44:40;9.50;99.90
28530;DHT22;15737;49.760;6.632;2023-02-03T10:47:30;9.50;99.90
28530;DHT22;15737;49.760;6.632;2023-02-03T10:50:23;9.50;99.90
28530;DHT22;15737;49.760;6.632;2023-02-03T10:52:46;9.50;99.90
28530;DHT22;15737;49.760;6.632;2023-02-03T10:57:49;9.40;99.90
28530;DHT22;15737;49.760;6.632;2023-02-03T11:00:22;9.40;99.90
28530;DHT22;15737;49.760;6.632;2023-02-03T11:05:27;9.40;99.90
28530;DHT22;15737;49.760;6.632;2023-02-03T11:07:52;9.30;99.90
28530;DHT22;15737;49.760;6.632;2023-02-03T11:10:26;9.30;99.90
28530;DHT22;15737;49.760;6.632;2023-02-03T11:13:19;9.30;99.90
28530;DHT22;15737;49.760;6.632;2023-02-03T11:16:00;9.30;99.90
28530;DHT22;15737;49.760;6.632;2023-02-03T11:18:51;9.30;99.90
28530;DHT22;15737;49.760;6.632;2023-02-03T11:21:30;9.40;99.90
28530;DHT22;15737;49.760;6.632;2023-02-03T11:24:16;9.40;99.90
28530;DHT22;15737;49.760;6.632;2023-02-03T11:26:46;9.40;99.90
28530;DHT22;15737;49.760;6.632;2023-02-03T11:29:31;9.40;99.90
28530;DHT22;15737;49.760;6.632;2023-02-03T11:32:04;9.40;99.90
28530;DHT22;15737;49.760;6.632;2023-02-03T11:34:33;9.40;99.90
28530;DHT22;15737;49.760;6.632;2023-02-03T11:37:32;9.40;99.90
28530;DHT22;15737;49.760;6.632;2023-02-03T11:42:40;9.40;99.90
28530;DHT22;15737;49.760;6.632;2023-02-03T11:53:21;9.60;99.90
28530;DHT22;15737;49.760;6.632;2023-02-03T11:59:05;9.70;99.90
28530;DHT22;15737;49.760;6.632;2023-02-03T12:07:31;9.60;99.90
28530;DHT22;15737;49.760;6.632;2023-02-03T12:10:11;9.60;99.90
28530;DHT22;15737;49.760;6.632;2023-02-03T12:12:54;9.60;99.90
28530;DHT22;15737;49.760;6.632;2023-02-03T12:18:18;9.70;99.90
28530;DHT22;15737;49.760;6.632;2023-02-03T12:26:22;9.80;99.90
28530;DHT22;15737;49.760;6.632;2023-02-03T12:31:45;9.80;99.90
28530;DHT22;15737;49.760;6.632;2023-02-03T12:34:31;9.90;99.90
28530;DHT22;15737;49.760;6.632;2023-02-03T12:37:15;9.80;99.90
28530;DHT22;15737;49.760;6.632;2023-02-03T12:39:47;9.90;99.90
28530;DHT22;15737;49.760;6.632;2023-02-03T12:42:26;9.90;99.90
28530;DHT22;15737;49.760;6.632;2023-02-03T12:45:13;9.90;99.90
28530;DHT22;15737;49.760;6.632;2023-02-03T12:47:52;9.70;99.90
28530;DHT22;15737;49.760;6.632;2023-02-03T12:50:29;9.70;99.90
28530;DHT22;15737;49.760;6.632;2023-02-03T12:53:01;9.80;99.90
28530;DHT22;15737;49.760;6.632;2023-02-03T12:55:38;10.00;99.90
28530;DHT22;15737;49.760;6.632;2023-02-03T12:58:09;10.20;99.90
28530;DHT22;15737;49.760;6.632;2023-02-03T13:06:06;10.10;99.90
28530;DHT22;15737;49.760;6.632;2023-02-03T13:08:36;9.90;99.90
28530;DHT22;15737;49.760;6.632;2023-02-03T13:11:10;9.90;99.90
28530;DHT22;15737;49.760;6.632;2023-02-03T13:13:42;9.80;99.90
28530;DHT22;15737;49.760;6.632;2023-02-03T13:16:13;9.80;99.90
28530;DHT22;15737;49.760;6.632;2023-02-03T13:18:46;9.80;99.90
28530;DHT22;15737;49.760;6.632;2023-02-03T13:21:14;9.70;99.90
28530;DHT22;15737;49.760;6.632;2023-02-03T13:23:43;9.60;99.90
28530;DHT22;15737;49.760;6.632;2023-02-03T13:26:30;9.60;99.90
28530;DHT22;15737;49.760;6.632;2023-02-03T13:31:55;9.40;99.90
28530;DHT22;15737;49.760;6.632;2023-02-03T13:40:38;9.30;99.90
28530;DHT22;15737;49.760;6.632;2023-02-03T13:43:13;9.30;99.90
28530;DHT22;15737;49.760;6.632;2023-02-03T13:45:42;9.30;99.90
28530;DHT22;15737;49.760;6.632;2023-02-03T13:48:24;9.30;99.90
28530;DHT22;15737;49.760;6.632;2023-02-03T13:53:36;9.30;99.90
28530;DHT22;15737;49.760;6.632;2023-02-03T13:56:04;9.30;99.90
28530;DHT22;15737;49.760;6.632;2023-02-03T13:58:36;9.30;99.90
28530;DHT22;15737;49.760;6.632;2023-02-03T14:01:26;9.20;99.90
28530;DHT22;15737;49.760;6.632;2023-02-03T14:03:52;9.20;99.90
28530;DHT22;15737;49.760;6.632;2023-02-03T14:11:45;9.30;99.90
28530;DHT22;15737;49.760;6.632;2023-02-03T14:16:47;9.30;99.90
28530;DHT22;15737;49.760;6.632;2023-02-03T14:22:06;9.20;99.90
28530;DHT22;15737;49.760;6.632;2023-02-03T14:24:37;9.20;99.90
28530;DHT22;15737;49.760;6.632;2023-02-03T14:27:15;9.20;99.90
28530;DHT22;15737;49.760;6.632;2023-02-03T14:29:41;9.20;99.90
28530;DHT22;15737;49.760;6.632;2023-02-03T14:32:08;9.20;99.90
28530;DHT22;15737;49.760;6.632;2023-02-03T14:34:44;9.10;99.90
28530;DHT22;15737;49.760;6.632;2023-02-03T14:45:34;9.00;99.90
28530;DHT22;15737;49.760;6.632;2023-02-03T14:50:34;8.90;99.90
28530;DHT22;15737;49.760;6.632;2023-02-03T14:58:59;8.70;99.90
28530;DHT22;15737;49.760;6.632;2023-02-03T15:06:45;8.70;99.90
28530;DHT22;15737;49.760;6.632;2023-02-03T15:09:44;8.60;99.90
28530;DHT22;15737;49.760;6.632;2023-02-03T15:12:19;8.60;99.90
28530;DHT22;15737;49.760;6.632;2023-02-03T15:14:47;8.60;99.90
28530;DHT22;15737;49.760;6.632;2023-02-03T15:19:41;8.40;99.90
28530;DHT22;15737;49.760;6.632;2023-02-03T15:22:24;8.40;99.90
28530;DHT22;15737;49.760;6.632;2023-02-03T15:24:52;8.40;99.90
28530;DHT22;15737;49.760;6.632;2023-02-03T15:27:27;8.40;99.90
28530;DHT22;15737;49.760;6.632;2023-02-03T15:29:53;8.30;99.90
28530;DHT22;15737;49.760;6.632;2023-02-03T15:32:29;8.20;99.90
28530;DHT22;15737;49.760;6.632;2023-02-03T15:34:57;8.20;99.90
28530;DHT22;15737;49.760;6.632;2023-02-03T15:37:35;8.10;99.90
28530;DHT22;15737;49.760;6.632;2023-02-03T15:40:11;8.10;99.90
28530;DHT22;15737;49.760;6.632;2023-02-03T15:42:48;8.10;99.90
28530;DHT22;15737;49.760;6.632;2023-02-03T15:48:07;8.10;99.90
28530;DHT22;15737;49.760;6.632;2023-02-03T15:50:41;8.10;99.90
28530;DHT22;15737;49.760;6.632;2023-02-03T15:53:22;8.10;99.90
28530;DHT22;15737;49.760;6.632;2023-02-03T15:55:52;8.10;99.90
28530;DHT22;15737;49.760;6.632;2023-02-03T15:58:23;8.10;99.90
28530;DHT22;15737;49.760;6.632;2023-02-03T16:00:54;8.10;99.90
28530;DHT22;15737;49.760;6.632;2023-02-03T16:03:25;8.00;99.90
28530;DHT22;15737;49.760;6.632;2023-02-03T16:05:52;8.00;99.90
28530;DHT22;15737;49.760;6.632;2023-02-03T16:08:42;8.00;99.90
28530;DHT22;15737;49.760;6.632;2023-02-03T16:11:35;8.00;99.90
28530;DHT22;15737;49.760;6.632;2023-02-03T16:14:03;8.00;99.90
28530;DHT22;15737;49.760;6.632;2023-02-03T16:16:35;8.00;99.90
28530;DHT22;15737;49.760;6.632;2023-02-03T16:21:50;7.90;99.90
28530;DHT22;15737;49.760;6.632;2023-02-03T16:30:20;7.90;99.90
28530;DHT22;15737;49.760;6.632;2023-02-03T16:35:53;7.80;99.90
28530;DHT22;15737;49.760;6.632;2023-02-03T16:38:37;7.80;99.90
28530;DHT22;15737;49.760;6.632;2023-02-03T16:41:21;7.80;99.90
28530;DHT22;15737;49.760;6.632;2023-02-03T16:44:07;7.80;99.90
28530;DHT22;15737;49.760;6.632;2023-02-03T16:46:53;7.80;99.90
28530;DHT22;15737;49.760;6.632;2023-02-03T16:49:38;7.80;99.90
28530;DHT22;15737;49.760;6.632;2023-02-03T16:52:23;7.80;99.90
28530;DHT22;15737;49.760;6.632;2023-02-03T16:54:48;7.80;99.90
28530;DHT22;15737;49.760;6.632;2023-02-03T16:57:13;7.80;99.90
28530;DHT22;15737;49.760;6.632;2023-02-03T16:59:39;7.80;99.90
28530;DHT22;15737;49.760;6.632;2023-02-03T17:02:04;7.80;99.90
28530;DHT22;15737;49.760;6.632;2023-02-03T17:04:30;7.80;99.90
28530;DHT22;15737;49.760;6.632;2023-02-03T17:06:55;7.80;99.90
28530;DHT22;15737;49.760;6.632;2023-02-03T17:09:21;7.80;99.90
28530;DHT22;15737;49.760;6.632;2023-02-03T17:11:49;7.80;99.90
28530;DHT22;15737;49.760;6.632;2023-02-03T17:14:15;7.80;99.90
28530;DHT22;15737;49.760;6.632;2023-02-03T17:16:41;7.80;99.90
28530;DHT22;15737;49.760;6.632;2023-02-03T17:19:09;7.80;99.90
28530;DHT22;15737;49.760;6.632;2023-02-03T17:21:35;7.80;99.90
28530;DHT22;15737;49.760;6.632;2023-02-03T17:24:01;7.90;99.90
28530;DHT22;15737;49.760;6.632;2023-02-03T17:26:26;7.80;99.90
28530;DHT22;15737;49.760;6.632;2023-02-03T17:28:52;7.80;99.90
28530;DHT22;15737;49.760;6.632;2023-02-03T17:31:19;7.80;99.90
28530;DHT22;15737;49.760;6.632;2023-02-03T17:33:45;7.80;99.90
28530;DHT22;15737;49.760;6.632;2023-02-03T17:36:16;7.90;99.90
28530;DHT22;15737;49.760;6.632;2023-02-03T17:38:47;7.80;99.90
28530;DHT22;15737;49.760;6.632;2023-02-03T17:41:15;7.80;99.90
28530;DHT22;15737;49.760;6.632;2023-02-03T17:43:42;7.80;99.90
28530;DHT22;15737;49.760;6.632;2023-02-03T17:46:10;7.90;99.90
28530;DHT22;15737;49.760;6.632;2023-02-03T17:48:36;7.90;99.90
28530;DHT22;15737;49.760;6.632;2023-02-03T17:51:11;7.90;99.90
28530;DHT22;15737;49.760;6.632;2023-02-03T17:53:42;7.90;99.90
28530;DHT22;15737;49.760;6.632;2023-02-03T17:58:35;7.90;99.90
28530;DHT22;15737;49.760;6.632;2023-02-03T18:03:34;7.90;99.90
28530;DHT22;15737;49.760;6.632;2023-02-03T18:05:59;7.90;99.90
28530;DHT22;15737;49.760;6.632;2023-02-03T18:08:27;7.90;99.90
28530;DHT22;15737;49.760;6.632;2023-02-03T18:10:53;7.90;99.90
28530;DHT22;15737;49.760;6.632;2023-02-03T18:13:19;7.90;99.90
28530;DHT22;15737;49.760;6.632;2023-02-03T18:15:47;7.90;99.90
28530;DHT22;15737;49.760;6.632;2023-02-03T18:18:13;7.90;99.90
28530;DHT22;15737;49.760;6.632;2023-02-03T18:20:38;7.90;99.90
28530;DHT22;15737;49.760;6.632;2023-02-03T18:23:04;7.90;99.90
28530;DHT22;15737;49.760;6.632;2023-02-03T18:25:29;7.90;99.90
28530;DHT22;15737;49.760;6.632;2023-02-03T18:27:55;7.90;99.90
28530;DHT22;15737;49.760;6.632;2023-02-03T18:30:20;7.90;99.90
28530;DHT22;15737;49.760;6.632;2023-02-03T18:32:49;8.00;99.90
28530;DHT22;15737;49.760;6.632;2023-02-03T18:35:15;8.00;99.90
28530;DHT22;15737;49.760;6.632;2023-02-03T18:37:42;8.00;99.90
28530;DHT22;15737;49.760;6.632;2023-02-03T18:40:09;8.10;99.90
28530;DHT22;15737;49.760;6.632;2023-02-03T18:42:35;8.10;99.90
28530;DHT22;15737;49.760;6.632;2023-02-03T18:45:00;8.10;99.90
28530;DHT22;15737;49.760;6.632;2023-02-03T18:47:30;8.10;99.90
28530;DHT22;15737;49.760;6.632;2023-02-03T18:49:56;8.10;99.90
28530;DHT22;15737;49.760;6.632;2023-02-03T18:52:21;8.20;99.90
28530;DHT22;15737;49.760;6.632;2023-02-03T18:54:47;8.10;99.90